createdAt,value
2022-09-24T00:00:05.156Z,17.10
2022-09-24T00:02:07.191Z,17.03
2022-09-24T00:04:12.549Z,17.01
2022-09-24T00:06:14.583Z,16.99
2022-09-24T00:08:17.751Z,16.95
2022-09-24T00:10:19.933Z,16.97
2022-09-24T00:12:22.067Z,16.97
2022-09-24T00:14:24.534Z,16.96
2022-09-24T00:16:29.139Z,16.94
2022-09-24T00:18:31.713Z,16.90
2022-09-24T00:20:36.100Z,16.91
2022-09-24T00:22:38.595Z,16.83
2022-09-24T00:24:51.211Z,16.76
2022-09-24T00:26:53.136Z,16.74
2022-09-24T00:28:55.073Z,16.72
2022-09-24T00:30:59.293Z,16.65
2022-09-24T00:33:01.263Z,16.54
2022-09-24T00:35:03.202Z,16.54
2022-09-24T00:37:05.034Z,16.53
2022-09-24T00:39:07.592Z,16.51
2022-09-24T00:41:09.622Z,16.47
2022-09-24T00:43:44.390Z,16.42
2022-09-24T00:45:46.396Z,16.38
2022-09-24T00:47:49.161Z,16.32
2022-09-24T00:49:52.017Z,16.35
2022-09-24T00:51:54.056Z,16.29
2022-09-24T00:54:01.812Z,16.30
2022-09-24T00:56:07.279Z,16.27
2022-09-24T00:58:10.297Z,16.25
2022-09-24T01:00:13.132Z,16.23
2022-09-24T01:02:15.650Z,16.15
2022-09-24T01:04:22.530Z,16.15
2022-09-24T01:06:26.455Z,16.20
2022-09-24T01:08:28.461Z,16.15
2022-09-24T01:11:14.829Z,16.06
2022-09-24T01:13:43.537Z,16.09
2022-09-24T01:15:57.941Z,16.08
2022-09-24T01:18:17.882Z,16.05
2022-09-24T01:20:32.024Z,16.01
2022-09-24T01:23:16.899Z,15.97
2022-09-24T01:25:58.723Z,15.93
2022-09-24T01:28:19.556Z,15.96
2022-09-24T01:30:21.033Z,15.97
2022-09-24T01:32:52.380Z,15.96
2022-09-24T01:35:24.499Z,15.96
2022-09-24T01:37:31.979Z,15.94
2022-09-24T01:39:37.561Z,15.95
2022-09-24T01:41:40.118Z,15.90
2022-09-24T01:43:43.321Z,15.88
2022-09-24T01:45:46.179Z,15.88
2022-09-24T01:47:48.813Z,15.90
2022-09-24T01:49:53.696Z,15.85
2022-09-24T01:51:58.788Z,15.89
2022-09-24T01:54:16.182Z,15.81
2022-09-24T01:56:42.522Z,15.83
2022-09-24T01:59:05.888Z,15.76
2022-09-24T02:01:12.645Z,15.76
2022-09-24T02:03:20.326Z,15.74
2022-09-24T02:05:28.781Z,15.76
2022-09-24T02:07:41.145Z,15.62
2022-09-24T02:09:44.330Z,15.70
2022-09-24T02:11:46.779Z,15.65
2022-09-24T02:13:57.601Z,15.61
2022-09-24T02:16:01.564Z,15.57
2022-09-24T02:18:10.209Z,15.54
2022-09-24T02:20:20.587Z,15.52
2022-09-24T02:22:25.523Z,15.54
2022-09-24T02:24:37.237Z,15.56
2022-09-24T02:26:39.219Z,15.60
2022-09-24T02:28:41.929Z,15.57
2022-09-24T02:31:28.122Z,15.62
2022-09-24T02:33:52.808Z,15.58
2022-09-24T02:35:55.028Z,15.53
2022-09-24T02:37:56.945Z,15.54
2022-09-24T02:39:58.898Z,15.51
2022-09-24T02:42:02.115Z,15.49
2022-09-24T02:44:03.732Z,15.51
2022-09-24T02:46:05.990Z,15.48
2022-09-24T02:48:08.254Z,15.52
2022-09-24T02:50:10.273Z,15.47
2022-09-24T02:52:12.927Z,15.52
2022-09-24T02:54:41.433Z,15.48
2022-09-24T02:57:05.637Z,15.50
2022-09-24T02:59:33.342Z,15.50
2022-09-24T03:02:03.176Z,15.52
2022-09-24T03:04:31.588Z,15.51
2022-09-24T03:06:34.021Z,15.48
2022-09-24T03:08:35.977Z,15.47
2022-09-24T03:10:37.937Z,15.45
2022-09-24T03:12:41.078Z,15.46
2022-09-24T03:14:43.129Z,15.46
2022-09-24T03:16:45.246Z,15.45
2022-09-24T03:18:48.103Z,15.45
2022-09-24T03:21:06.313Z,15.44
2022-09-24T03:23:08.313Z,15.42
2022-09-24T03:25:11.386Z,15.41
2022-09-24T03:27:13.416Z,15.42
2022-09-24T03:29:15.442Z,15.43
2022-09-24T03:31:17.773Z,15.42
2022-09-24T03:33:19.722Z,15.40
2022-09-24T03:35:21.939Z,15.38
2022-09-24T03:37:23.886Z,15.41
2022-09-24T03:39:25.703Z,15.37
2022-09-24T03:41:28.533Z,15.39
2022-09-24T03:43:31.651Z,15.39
2022-09-24T03:45:33.626Z,15.37
2022-09-24T03:47:35.966Z,15.36
2022-09-24T03:49:37.950Z,15.38
2022-09-24T03:51:39.946Z,15.36
2022-09-24T03:53:42.284Z,15.38
2022-09-24T03:55:53.013Z,15.40
2022-09-24T03:57:54.802Z,15.31
2022-09-24T03:59:58.742Z,15.36
2022-09-24T04:02:01.015Z,15.37
2022-09-24T04:04:04.243Z,15.38
2022-09-24T04:06:07.160Z,15.34
2022-09-24T04:08:09.299Z,15.31
2022-09-24T04:10:11.887Z,15.30
2022-09-24T04:12:14.321Z,15.30
2022-09-24T04:14:16.300Z,15.26
2022-09-24T04:16:26.712Z,15.24
2022-09-24T04:18:28.825Z,15.19
2022-09-24T04:20:31.464Z,15.18
2022-09-24T04:22:33.605Z,15.20
2022-09-24T04:24:35.640Z,15.16
2022-09-24T04:26:37.759Z,15.12
2022-09-24T04:28:39.893Z,15.11
2022-09-24T04:30:56.474Z,15.08
2022-09-24T04:33:01.227Z,15.06
2022-09-24T04:35:07.475Z,15.02
2022-09-24T04:37:10.471Z,15.03
2022-09-24T04:39:12.466Z,15.02
2022-09-24T04:41:17.466Z,15.00
2022-09-24T04:43:19.664Z,14.94
2022-09-24T04:45:22.429Z,14.97
2022-09-24T04:47:26.137Z,14.92
2022-09-24T04:49:29.375Z,14.92
2022-09-24T04:51:34.156Z,14.92
2022-09-24T04:53:37.487Z,14.90
2022-09-24T04:55:39.913Z,14.91
2022-09-24T04:57:41.974Z,14.88
2022-09-24T04:59:44.588Z,14.86
2022-09-24T05:01:47.460Z,14.88
2022-09-24T05:03:50.002Z,14.84
2022-09-24T05:05:52.298Z,14.80
2022-09-24T05:07:56.952Z,14.79
2022-09-24T05:09:59.097Z,14.76
2022-09-24T05:12:02.184Z,14.73
2022-09-24T05:14:04.166Z,14.70
2022-09-24T05:16:06.247Z,14.69
2022-09-24T05:18:12.784Z,14.60
2022-09-24T05:20:17.063Z,14.60
2022-09-24T05:22:19.406Z,14.57
2022-09-24T05:24:21.411Z,14.54
2022-09-24T05:26:42.102Z,14.55
2022-09-24T05:28:44.181Z,14.53
2022-09-24T05:30:51.708Z,14.53
2022-09-24T05:32:53.563Z,14.53
2022-09-24T05:34:55.519Z,14.48
2022-09-24T05:36:57.514Z,14.48
2022-09-24T05:38:59.584Z,14.44
2022-09-24T05:41:06.386Z,14.40
2022-09-24T05:43:08.627Z,14.38
2022-09-24T05:45:10.723Z,14.38
2022-09-24T05:47:14.062Z,14.37
2022-09-24T05:49:16.792Z,14.33
2022-09-24T05:51:19.224Z,14.37
2022-09-24T05:53:22.855Z,14.28
2022-09-24T05:55:28.748Z,14.35
2022-09-24T05:57:34.484Z,14.33
2022-09-24T05:59:36.854Z,14.30
2022-09-24T06:01:41.581Z,14.32
2022-09-24T06:03:43.655Z,14.31
2022-09-24T06:05:49.055Z,14.32
2022-09-24T06:07:51.708Z,14.30
2022-09-24T06:09:53.743Z,14.32
2022-09-24T06:11:56.469Z,14.30
2022-09-24T06:14:01.085Z,14.33
2022-09-24T06:16:05.871Z,14.30
2022-09-24T06:18:18.828Z,14.29
2022-09-24T06:20:21.476Z,14.28
2022-09-24T06:22:28.187Z,14.30
2022-09-24T06:24:30.644Z,14.27
2022-09-24T06:26:33.391Z,14.29
2022-09-24T06:28:35.464Z,14.30
2022-09-24T06:30:41.027Z,14.30
2022-09-24T06:32:43.018Z,14.27
2022-09-24T06:34:45.564Z,14.29
2022-09-24T06:36:47.499Z,14.29
2022-09-24T06:38:53.300Z,14.30
2022-09-24T06:41:00.353Z,14.27
2022-09-24T06:43:02.495Z,14.30
2022-09-24T06:45:05.106Z,14.33
2022-09-24T06:47:07.239Z,14.33
2022-09-24T06:49:09.410Z,14.35
2022-09-24T06:51:11.388Z,14.33
2022-09-24T06:53:13.401Z,14.33
2022-09-24T06:55:16.174Z,14.32
2022-09-24T06:57:18.462Z,14.32
2022-09-24T06:59:20.843Z,14.29
2022-09-24T07:01:23.186Z,14.31
2022-09-24T07:03:26.857Z,14.34
2022-09-24T07:05:29.007Z,14.38
2022-09-24T07:07:33.046Z,14.32
2022-09-24T07:09:36.534Z,14.37
2022-09-24T07:11:39.388Z,14.39
2022-09-24T07:13:41.937Z,14.36
2022-09-24T07:15:44.727Z,14.36
2022-09-24T07:17:46.843Z,14.38
2022-09-24T07:19:48.946Z,14.39
2022-09-24T07:21:58.223Z,14.39
2022-09-24T07:24:00.395Z,14.37
2022-09-24T07:26:02.399Z,14.38
2022-09-24T07:28:06.435Z,14.38
2022-09-24T07:30:09.535Z,14.41
2022-09-24T07:32:11.264Z,14.45
2022-09-24T07:34:14.190Z,14.46
2022-09-24T07:36:15.755Z,14.50
2022-09-24T07:38:17.388Z,14.48
2022-09-24T07:40:20.310Z,14.54
2022-09-24T07:42:23.522Z,14.56
2022-09-24T07:44:25.150Z,14.54
2022-09-24T07:46:27.537Z,14.58
2022-09-24T07:48:29.231Z,14.60
2022-09-24T07:50:33.965Z,14.65
2022-09-24T07:52:35.847Z,14.71
2022-09-24T07:54:38.432Z,14.74
2022-09-24T07:56:40.171Z,14.77
2022-09-24T07:58:41.817Z,14.83
2022-09-24T08:00:53.788Z,14.82
2022-09-24T08:02:56.633Z,14.90
2022-09-24T08:04:58.750Z,14.99
2022-09-24T08:07:01.311Z,14.97
2022-09-24T08:09:04.226Z,15.05
2022-09-24T08:11:08.506Z,15.11
2022-09-24T08:13:10.175Z,15.14
2022-09-24T08:15:11.905Z,15.20
2022-09-24T08:17:13.729Z,15.25
2022-09-24T08:19:17.016Z,15.30
2022-09-24T08:21:18.731Z,15.33
2022-09-24T08:23:23.553Z,15.37
2022-09-24T08:25:25.173Z,15.46
2022-09-24T08:27:28.063Z,15.48
2022-09-24T08:29:29.682Z,15.47
2022-09-24T08:31:31.475Z,15.55
2022-09-24T08:33:33.859Z,15.61
2022-09-24T08:35:36.713Z,15.67
2022-09-24T08:37:39.127Z,15.72
2022-09-24T08:39:40.785Z,15.76
2022-09-24T08:42:00.396Z,15.76
2022-09-24T08:44:15.096Z,15.88
2022-09-24T08:46:44.126Z,15.97
2022-09-24T08:51:21.134Z,16.14
2022-09-24T08:53:45.250Z,16.21
2022-09-24T08:56:05.047Z,16.21
2022-09-24T08:58:32.008Z,16.32
2022-09-24T09:00:58.269Z,16.41
2022-09-24T09:03:12.504Z,16.50
2022-09-24T09:05:34.170Z,16.52
2022-09-24T09:07:49.424Z,16.57
2022-09-24T09:10:04.256Z,16.58
2022-09-24T09:12:28.764Z,16.59
2022-09-24T09:15:00.209Z,16.64
2022-09-24T09:17:37.756Z,16.70
2022-09-24T09:19:40.904Z,16.76
2022-09-24T09:21:46.865Z,16.82
2022-09-24T09:23:51.393Z,16.86
2022-09-24T09:25:57.274Z,16.90
2022-09-24T09:28:03.236Z,16.87
2022-09-24T09:30:11.788Z,16.90
2022-09-24T09:32:21.236Z,17.03
2022-09-24T09:34:50.675Z,17.07
2022-09-24T09:37:19.885Z,17.22
2022-09-24T09:39:50.907Z,17.33
2022-09-24T09:41:59.875Z,17.40
2022-09-24T09:44:14.196Z,17.43
2022-09-24T09:46:25.601Z,17.54
2022-09-24T09:48:39.576Z,17.60
2022-09-24T09:51:04.587Z,17.73
2022-09-24T09:53:06.661Z,17.80
2022-09-24T09:55:19.855Z,17.83
2022-09-24T09:57:26.451Z,17.94
2022-09-24T09:59:30.033Z,18.07
2022-09-24T10:01:34.630Z,18.18
2022-09-24T10:03:46.463Z,18.32
2022-09-24T10:06:01.096Z,18.36
2022-09-24T10:08:02.758Z,18.50
2022-09-24T10:10:18.302Z,18.56
2022-09-24T10:12:22.432Z,18.66
2022-09-24T10:14:24.135Z,18.75
2022-09-24T10:16:33.194Z,18.88
2022-09-24T10:18:42.449Z,19.03
2022-09-24T10:20:52.039Z,19.21
2022-09-24T10:23:19.625Z,19.32
2022-09-24T10:25:27.122Z,19.43
2022-09-24T10:27:37.476Z,19.52
2022-09-24T10:29:58.489Z,19.55
2022-09-24T10:32:04.084Z,19.57
2022-09-24T10:34:29.286Z,19.65
2022-09-24T10:36:35.142Z,19.79
2022-09-24T10:38:38.025Z,19.81
2022-09-24T10:40:50.785Z,19.86
2022-09-24T10:43:01.507Z,19.98
2022-09-24T10:45:04.732Z,20.02
2022-09-24T10:47:26.985Z,20.13
2022-09-24T10:49:43.528Z,20.26
2022-09-24T10:52:09.912Z,20.25
2022-09-24T10:54:57.987Z,20.28
2022-09-24T10:57:10.972Z,20.23
2022-09-24T10:59:34.304Z,20.33
2022-09-24T11:01:47.514Z,20.34
2022-09-24T11:03:53.247Z,20.38
2022-09-24T11:06:13.937Z,20.40
2022-09-24T11:08:29.191Z,20.41
2022-09-24T11:11:13.423Z,20.44
2022-09-24T11:13:21.708Z,20.44
2022-09-24T11:15:26.521Z,20.45
2022-09-24T11:17:33.502Z,20.45
2022-09-24T11:20:07.679Z,20.48
2022-09-24T11:22:20.884Z,20.40
2022-09-24T11:24:43.850Z,20.50
2022-09-24T11:27:19.214Z,20.54
2022-09-24T11:29:23.953Z,20.58
2022-09-24T11:31:28.568Z,20.68
2022-09-24T11:33:52.342Z,20.73
2022-09-24T11:36:12.779Z,20.79
2022-09-24T11:38:23.937Z,20.95
2022-09-24T11:40:53.498Z,20.99
2022-09-24T11:43:07.373Z,21.12
2022-09-24T11:45:59.452Z,21.19
2022-09-24T11:48:22.798Z,21.23
2022-09-24T11:50:33.076Z,21.23
2022-09-24T11:52:56.103Z,21.18
2022-09-24T11:55:00.790Z,21.04
2022-09-24T11:57:25.763Z,21.15
2022-09-24T11:59:50.615Z,21.24
2022-09-24T12:02:15.136Z,21.29
2022-09-24T12:04:44.400Z,21.42
2022-09-24T12:07:13.247Z,21.54
2022-09-24T12:09:21.424Z,21.70
2022-09-24T12:11:48.735Z,21.82
2022-09-24T12:14:02.720Z,21.85
2022-09-24T12:16:07.515Z,21.77
2022-09-24T12:18:17.943Z,21.81
2022-09-24T12:20:59.442Z,21.74
2022-09-24T12:23:13.379Z,21.63
2022-09-24T12:25:17.059Z,21.53
2022-09-24T12:27:33.106Z,21.35
2022-09-24T12:30:19.457Z,21.24
2022-09-24T12:32:56.761Z,21.11
2022-09-24T12:35:05.672Z,21.05
2022-09-24T12:37:14.381Z,21.12
2022-09-24T12:39:20.661Z,21.20
2022-09-24T12:42:00.146Z,21.14
2022-09-24T12:44:10.909Z,21.23
2022-09-24T12:46:16.758Z,21.30
2022-09-24T12:48:23.326Z,21.38
2022-09-24T12:50:27.635Z,21.21
2022-09-24T12:52:55.579Z,21.23
2022-09-24T12:55:01.054Z,21.15
2022-09-24T12:57:12.850Z,21.30
2022-09-24T12:59:28.490Z,21.30
2022-09-24T13:01:32.443Z,21.35
2022-09-24T13:03:44.601Z,21.27
2022-09-24T13:05:48.690Z,21.36
2022-09-24T13:08:01.006Z,21.43
2022-09-24T13:10:17.788Z,21.62
2022-09-24T13:12:33.212Z,21.70
2022-09-24T13:14:35.484Z,21.77
2022-09-24T13:16:43.425Z,21.82
2022-09-24T13:18:58.008Z,21.95
2022-09-24T13:21:09.404Z,22.10
2022-09-24T13:23:14.775Z,22.16
2022-09-24T13:25:23.238Z,22.24
2022-09-24T13:27:30.886Z,22.41
2022-09-24T13:29:38.448Z,22.50
2022-09-24T13:31:48.980Z,22.58
2022-09-24T13:34:18.290Z,22.72
2022-09-24T13:36:42.739Z,22.87
2022-09-24T13:38:50.113Z,22.93
2022-09-24T13:41:04.551Z,22.98
2022-09-24T13:43:25.739Z,23.02
2022-09-24T13:45:28.184Z,22.99
2022-09-24T13:47:42.731Z,22.97
2022-09-24T13:49:49.713Z,23.02
2022-09-24T13:52:06.722Z,23.03
2022-09-24T13:54:14.485Z,23.02
2022-09-24T13:56:19.512Z,23.08
2022-09-24T13:58:30.783Z,23.17
2022-09-24T14:00:52.951Z,23.31
2022-09-24T14:02:57.604Z,23.40
2022-09-24T14:05:01.505Z,23.45
2022-09-24T14:07:03.361Z,23.37
2022-09-24T14:09:26.415Z,23.21
2022-09-24T14:11:28.262Z,23.14
2022-09-24T14:13:29.924Z,22.98
2022-09-24T14:15:31.658Z,22.84
2022-09-24T14:17:33.448Z,22.58
2022-09-24T14:19:36.215Z,22.45
2022-09-24T14:21:43.995Z,22.19
2022-09-24T14:23:51.859Z,22.00
2022-09-24T14:25:54.618Z,21.93
2022-09-24T14:28:00.203Z,21.73
2022-09-24T14:30:05.287Z,21.60
2022-09-24T14:32:08.271Z,21.59
2022-09-24T14:34:27.306Z,21.35
2022-09-24T14:36:29.418Z,21.30
2022-09-24T14:38:36.769Z,21.18
2022-09-24T14:40:55.645Z,21.11
2022-09-24T14:43:02.834Z,21.05
2022-09-24T14:45:08.019Z,20.98
2022-09-24T14:47:25.467Z,21.05
2022-09-24T14:49:31.238Z,21.28
2022-09-24T14:51:33.153Z,21.49
2022-09-24T14:53:36.764Z,21.75
2022-09-24T14:55:45.459Z,21.89
2022-09-24T14:57:51.769Z,21.89
2022-09-24T14:59:55.601Z,21.85
2022-09-24T15:02:29.540Z,21.70
2022-09-24T15:04:31.357Z,21.49
2022-09-24T15:06:36.999Z,21.54
2022-09-24T15:08:38.693Z,21.51
2022-09-24T15:10:56.986Z,21.43
2022-09-24T15:12:58.579Z,21.43
2022-09-24T15:15:27.647Z,21.43
2022-09-24T15:17:32.419Z,21.39
2022-09-24T15:19:34.229Z,21.35
2022-09-24T15:21:35.898Z,21.30
2022-09-24T15:23:37.624Z,21.32
2022-09-24T15:25:43.510Z,21.32
2022-09-24T15:27:45.474Z,21.25
2022-09-24T15:29:47.178Z,21.31
2022-09-24T15:31:48.897Z,21.31
2022-09-24T15:33:50.800Z,21.15
2022-09-24T15:35:52.616Z,21.17
2022-09-24T15:37:54.266Z,21.15
2022-09-24T15:40:04.930Z,21.10
2022-09-24T15:42:08.241Z,21.04
2022-09-24T15:44:19.980Z,20.99
2022-09-24T15:46:21.788Z,21.00
2022-09-24T15:48:23.482Z,20.90
2022-09-24T15:50:26.002Z,20.73
2022-09-24T15:52:31.721Z,20.79
2022-09-24T15:54:33.495Z,20.71
2022-09-24T15:56:35.902Z,20.68
2022-09-24T15:58:38.072Z,20.61
2022-09-24T16:00:44.084Z,20.58
2022-09-24T16:02:49.996Z,20.57
2022-09-24T16:04:52.095Z,20.50
2022-09-24T16:06:53.727Z,20.43
2022-09-24T16:08:55.316Z,20.42
2022-09-24T16:10:57.216Z,20.40
2022-09-24T16:12:58.805Z,20.35
2022-09-24T16:15:00.804Z,20.25
2022-09-24T16:17:02.591Z,20.27
2022-09-24T16:19:04.214Z,20.26
2022-09-24T16:21:07.913Z,20.16
2022-09-24T16:23:14.515Z,20.20
2022-09-24T16:25:16.256Z,20.12
2022-09-24T16:27:17.888Z,20.04
2022-09-24T16:29:19.686Z,20.04
2022-09-24T16:31:21.426Z,20.03
2022-09-24T16:33:23.541Z,19.92
2022-09-24T16:35:25.239Z,19.87
2022-09-24T16:37:26.854Z,19.89
2022-09-24T16:39:28.444Z,19.85
2022-09-24T16:41:34.373Z,19.86
2022-09-24T16:43:36.099Z,19.81
2022-09-24T16:45:37.731Z,19.76
2022-09-24T16:47:39.414Z,19.76
2022-09-24T16:49:56.802Z,19.77
2022-09-24T16:52:25.982Z,19.75
2022-09-24T16:54:33.853Z,19.73
2022-09-24T16:56:46.338Z,19.76
2022-09-24T16:59:01.710Z,19.71
2022-09-24T17:01:15.020Z,19.66
2022-09-24T17:03:31.155Z,19.68
2022-09-24T17:05:46.455Z,19.57
2022-09-24T17:07:51.486Z,19.61
2022-09-24T17:10:24.982Z,19.62
2022-09-24T17:12:36.775Z,19.63
2022-09-24T17:14:38.974Z,19.63
2022-09-24T17:16:41.843Z,19.57
2022-09-24T17:18:43.673Z,19.59
2022-09-24T17:20:49.460Z,19.50
2022-09-24T17:22:51.319Z,19.49
2022-09-24T17:24:52.954Z,19.42
2022-09-24T17:26:55.190Z,19.46
2022-09-24T17:28:56.864Z,19.43
2022-09-24T17:30:58.737Z,19.42
2022-09-24T17:33:00.363Z,19.37
2022-09-24T17:35:02.231Z,19.35
2022-09-24T17:37:05.174Z,19.27
2022-09-24T17:39:07.260Z,19.30
2022-09-24T17:41:12.192Z,19.26
2022-09-24T17:43:13.965Z,19.27
2022-09-24T17:45:15.880Z,19.26
2022-09-24T17:47:17.783Z,19.23
2022-09-24T17:49:20.629Z,19.19
2022-09-24T17:51:33.731Z,19.23
2022-09-24T17:53:37.928Z,19.15
2022-09-24T17:55:48.278Z,19.15
2022-09-24T17:57:50.143Z,19.16
2022-09-24T17:59:52.055Z,19.17
2022-09-24T18:01:54.300Z,19.16
2022-09-24T18:03:58.382Z,19.12
2022-09-24T18:06:05.212Z,19.10
2022-09-24T18:08:07.695Z,18.99
2022-09-24T18:10:09.724Z,19.03
2022-09-24T18:12:17.090Z,18.98
2022-09-24T18:14:23.155Z,18.98
2022-09-24T18:16:28.401Z,19.00
2022-09-24T18:18:30.400Z,18.97
2022-09-24T18:20:32.348Z,18.94
2022-09-24T18:22:33.999Z,18.91
2022-09-24T18:24:35.745Z,18.91
2022-09-24T18:26:40.206Z,18.89
2022-09-24T18:28:48.183Z,18.88
2022-09-24T18:31:03.444Z,18.89
2022-09-24T18:33:05.194Z,18.87
2022-09-24T18:35:10.456Z,18.73
2022-09-24T18:37:12.941Z,18.74
2022-09-24T18:39:22.019Z,18.78
2022-09-24T18:41:28.381Z,18.71
2022-09-24T18:43:31.224Z,18.65
2022-09-24T18:45:34.776Z,18.56
2022-09-24T18:47:38.334Z,18.55
2022-09-24T18:49:43.619Z,18.47
2022-09-24T18:51:46.673Z,18.50
2022-09-24T18:53:56.536Z,18.50
2022-09-24T18:56:03.008Z,18.40
2022-09-24T18:58:06.919Z,18.38
2022-09-24T19:00:29.477Z,18.34
2022-09-24T19:02:31.562Z,18.32
2022-09-24T19:04:33.708Z,18.32
2022-09-24T19:06:37.647Z,18.28
2022-09-24T19:08:40.051Z,18.26
2022-09-24T19:11:00.108Z,18.30
2022-09-24T19:13:08.301Z,18.22
2022-09-24T19:15:10.011Z,18.26
2022-09-24T19:17:11.623Z,18.20
2022-09-24T19:19:13.365Z,18.23
2022-09-24T19:21:15.813Z,18.22
2022-09-24T19:23:17.518Z,18.16
2022-09-24T19:25:19.132Z,18.15
2022-09-24T19:27:20.733Z,18.07
2022-09-24T19:29:22.664Z,18.05
2022-09-24T19:31:26.868Z,18.01
2022-09-24T19:33:28.802Z,18.05
2022-09-24T19:35:30.434Z,18.05
2022-09-24T19:37:32.452Z,17.96
2022-09-24T19:39:34.111Z,17.97
2022-09-24T19:41:35.913Z,17.98
2022-09-24T19:43:37.832Z,17.92
2022-09-24T19:45:39.611Z,17.97
2022-09-24T19:47:41.237Z,17.96
2022-09-24T19:49:42.894Z,17.91
2022-09-24T19:51:44.546Z,17.86
2022-09-24T19:53:51.701Z,17.87
2022-09-24T19:56:18.430Z,17.86
2022-09-24T19:58:20.176Z,17.75
2022-09-24T20:00:23.687Z,17.80
2022-09-24T20:02:25.552Z,17.75
2022-09-24T20:04:27.284Z,17.74
2022-09-24T20:06:31.358Z,17.68
2022-09-24T20:08:36.845Z,17.70
2022-09-24T20:10:52.696Z,17.72
2022-09-24T20:12:54.646Z,17.71
2022-09-24T20:14:56.427Z,17.65
2022-09-24T20:16:58.114Z,17.67
2022-09-24T20:19:01.478Z,17.58
2022-09-24T20:21:05.300Z,17.64
2022-09-24T20:23:08.376Z,17.65
2022-09-24T20:25:11.699Z,17.63
2022-09-24T20:27:31.618Z,17.53
2022-09-24T20:29:34.280Z,17.56
2022-09-24T20:31:37.361Z,17.51
2022-09-24T20:33:41.236Z,17.44
2022-09-24T20:35:42.960Z,17.48
2022-09-24T20:37:44.828Z,17.45
2022-09-24T20:39:46.583Z,17.44
2022-09-24T20:41:52.852Z,17.41
2022-09-24T20:43:55.625Z,17.36
2022-09-24T20:45:57.327Z,17.34
2022-09-24T20:47:59.087Z,17.40
2022-09-24T20:50:00.725Z,17.34
2022-09-24T20:52:03.729Z,17.28
2022-09-24T20:54:05.730Z,17.23
2022-09-24T20:56:09.326Z,17.21
2022-09-24T20:58:11.068Z,17.24
2022-09-24T21:00:15.019Z,17.20
2022-09-24T21:02:16.761Z,17.21
2022-09-24T21:04:20.236Z,17.19
2022-09-24T21:06:23.479Z,17.20
2022-09-24T21:08:25.165Z,17.15
2022-09-24T21:10:31.969Z,17.16
2022-09-24T21:13:05.331Z,17.16
2022-09-24T21:15:30.253Z,17.13
2022-09-24T21:17:32.517Z,17.13
2022-09-24T21:19:35.720Z,16.99
2022-09-24T21:21:39.197Z,17.06
2022-09-24T21:23:41.360Z,17.05
2022-09-24T21:25:54.305Z,16.93
2022-09-24T21:27:56.804Z,16.92
2022-09-24T21:29:58.437Z,16.94
2022-09-24T21:32:07.711Z,16.90
2022-09-24T21:34:11.448Z,16.90
2022-09-24T21:36:15.304Z,16.90
2022-09-24T21:38:19.835Z,16.85
2022-09-24T21:40:21.796Z,16.74
2022-09-24T21:42:24.177Z,16.83
2022-09-24T21:44:26.269Z,16.84
2022-09-24T21:46:31.463Z,16.80
2022-09-24T21:48:34.455Z,16.77
2022-09-24T21:50:49.452Z,16.78
2022-09-24T21:52:52.024Z,16.84
2022-09-24T21:54:53.690Z,16.75
2022-09-24T21:56:55.389Z,16.86
2022-09-24T21:58:58.396Z,16.82
2022-09-24T22:01:04.990Z,16.78
2022-09-24T22:03:08.385Z,16.78
2022-09-24T22:05:10.127Z,16.75
2022-09-24T22:07:11.890Z,16.72
2022-09-24T22:09:13.505Z,16.76
2022-09-24T22:11:15.619Z,16.71
2022-09-24T22:13:17.687Z,16.79
2022-09-24T22:15:21.403Z,16.79
2022-09-24T22:17:23.034Z,16.84
2022-09-24T22:19:24.911Z,16.77
2022-09-24T22:21:27.548Z,16.71
2022-09-24T22:23:29.255Z,16.71
2022-09-24T22:25:31.431Z,16.74
2022-09-24T22:27:33.164Z,16.76
2022-09-24T22:29:34.937Z,16.75
2022-09-24T22:31:36.564Z,16.69
2022-09-24T22:33:57.078Z,16.72
2022-09-24T22:35:58.759Z,16.69
2022-09-24T22:38:00.438Z,16.63
2022-09-24T22:40:04.581Z,16.63
2022-09-24T22:42:07.077Z,16.58
2022-09-24T22:44:09.115Z,16.65
2022-09-24T22:46:12.916Z,16.60
2022-09-24T22:48:14.627Z,16.61
2022-09-24T22:50:16.386Z,16.62
2022-09-24T22:52:18.154Z,16.56
2022-09-24T22:54:19.936Z,16.49
2022-09-24T22:56:24.653Z,16.49
2022-09-24T22:58:28.076Z,16.43
2022-09-24T23:00:29.705Z,16.39
2022-09-24T23:02:31.349Z,16.48
2022-09-24T23:04:33.246Z,16.52
2022-09-24T23:06:35.260Z,16.51
2022-09-24T23:08:37.710Z,16.49
2022-09-24T23:10:39.373Z,16.52
2022-09-24T23:12:41.100Z,16.50
2022-09-24T23:14:46.532Z,16.53
2022-09-24T23:16:48.661Z,16.41
2022-09-24T23:18:53.823Z,16.41
2022-09-24T23:20:55.448Z,16.42
2022-09-24T23:22:58.379Z,16.41
2022-09-24T23:25:02.517Z,16.37
2022-09-24T23:27:04.935Z,16.40
2022-09-24T23:29:08.978Z,16.40
2022-09-24T23:31:15.459Z,16.36
2022-09-24T23:33:17.328Z,16.30
2022-09-24T23:35:19.103Z,16.28
2022-09-24T23:37:21.755Z,16.25
2022-09-24T23:39:24.348Z,16.24
2022-09-24T23:41:29.173Z,16.25
2022-09-24T23:43:31.981Z,16.28
2022-09-24T23:45:35.358Z,16.25
2022-09-24T23:47:40.078Z,16.23
2022-09-24T23:49:43.066Z,16.24
2022-09-24T23:51:47.065Z,16.20
2022-09-24T23:53:52.618Z,16.16
2022-09-24T23:55:56.711Z,16.15
2022-09-24T23:58:00.037Z,16.15
